KBCE/BCE METAR and TAF weather

Enter ICAO airport designator
Station Type Date Time Source
KBCE METAR 2019/08/22 08:53 UTC NOAA

KBCE 220853Z AUTO 26005KT 7SM CLR 07/M07 A3019 RMK AO2 SLP097 T00721072 58008


Station Type Date Time Source
KBCE Decoded METAR 2019/08/22 08:53 UTC NOAA

Station name not available
Aug 22, 2019 - 04:53 AM EDT / 2019.08.22 0853 UTC
Wind: from the W (260 degrees) at 6 MPH (5 KT):0
Visibility: 7 mile(s):0
Sky conditions: clear
Temperature: 45.0 F (7.2 C)
Dew Point: 19.0 F (-7.2 C)
Relative Humidity: 35%
Pressure (altimeter): 30.19 in. Hg (1022 hPa)
Pressure tendency: 0.02 inches (0.8 hPa) lower than three hours ago
ob: KBCE 220853Z AUTO 26005KT 7SM CLR 07/M07 A3019 RMK AO2 SLP097 T00721072 58008
cycle: 9

Station Type Date Time Source
KBCE TAF 2019/08/22 06:22 UTC NOAA

TAF KBCE 220520Z 2206/2306 27006KT P6SM SKC
FM221800 22015G25KT P6SM FEW200
FM230300 27007KT P6SM SKC

Example: see airport list